Terminal Aerodrome Forecast
Issued by NWS

Home | Current Version | Previous Version | Text Only | Print | Product List | Glossary On
Versions: 1 2 3 4 5 6 7 8 9 10 11 12 13 14 15 16 17 18 19 20
000
FTUS43 KJKL 161120
TAFSME
TAF
KSME 161120Z 1612/1712 16007KT P6SM VCTS SCT015CB BKN050
      TEMPO 1612/1616 5SM TSRA BR BKN015CB
     FM161600 16007KT P6SM VCTS SCT020CB BKN040
     FM170200 16003KT P6SM VCSH BKN040
     FM170800 20003KT 5SM BR BKN020=

USA.gov is the U.S. government's official web portal to all federal, state and local government web resources and services.